Time;durP1;ratioP1;P1;durP2;ratioP2;P2;SDS_P1;SDS_P2;PMS_P1;PMS_P2;Temp;Humidity;BMP_temperature;BMP_pressure;BME280_temperature;BME280_humidity;BME280_pressure;Samples;Min_cycle;Max_cycle;Signal;HPM_P1;HPM_P2
2023/10/07 00:01:45;;;;;;;4.97;3.45;;;;;;;14.41;52.06;95884.38;5024764;28;20025;-78
2023/10/07 00:04:13;;;;;;;5.75;3.22;;;;;;;14.35;52.09;95882.13;5025241;28;20029;-77
2023/10/07 00:06:39;;;;;;;6.95;4.15;;;;;;;14.32;52.25;95887.75;5026389;28;20022;-78
2023/10/07 00:09:10;;;;;;;6.68;3.85;;;;;;;14.25;52.39;95883.22;5024856;28;20028;-78
2023/10/07 00:11:36;;;;;;;8.32;4.10;;;;;;;14.24;52.48;95886.41;5026778;28;20025;-78
2023/10/07 00:14:02;;;;;;;6.45;4.10;;;;;;;14.20;52.35;95882.97;5008150;28;20503;-78
2023/10/07 00:16:28;;;;;;;7.68;3.80;;;;;;;14.11;52.18;95864.25;5025634;28;20029;-77
2023/10/07 00:18:54;;;;;;;6.03;3.50;;;;;;;14.15;52.53;95870.44;5008235;28;20030;-78
2023/10/07 00:21:44;;;;;;;7.50;4.03;;;;;;;14.16;52.28;95877.53;5026813;28;20451;-78
2023/10/07 00:24:15;;;;;;;6.97;3.60;;;;;;;14.00;52.59;95863.78;5012082;28;20033;-78
2023/10/07 00:26:40;;;;;;;6.30;3.72;;;;;;;13.98;52.56;95861.44;5009560;28;20124;-78
2023/10/07 00:29:07;;;;;;;7.78;3.45;;;;;;;13.93;52.74;95856.44;5024929;28;20097;-77
2023/10/07 00:31:34;;;;;;;5.53;3.80;;;;;;;13.87;52.99;95866.47;5026296;28;20060;-78
2023/10/07 00:34:05;;;;;;;5.38;3.45;;;;;;;13.81;53.16;95857.16;5024952;28;20053;-78
2023/10/07 00:39:07;;;;;;;7.72;3.90;;;;;;;13.81;53.16;95859.94;5026614;28;20472;-78
2023/10/07 00:44:34;;;;;;;6.43;3.75;;;;;;;13.68;53.25;95842.53;4971751;28;19925;-78
2023/10/07 00:49:29;;;;;;;7.32;3.65;;;;;;;13.70;53.55;95843.63;4968195;28;20038;-77
2023/10/07 00:51:56;;;;;;;8.52;3.97;;;;;;;13.59;53.64;95845.13;4968507;28;20081;-78
2023/10/07 00:59:55;;;;;;;5.25;3.65;;;;;;;13.46;54.16;95848.59;4907812;29;20081;-78
2023/10/07 01:02:30;;;;;;;7.50;3.70;;;;;;;13.38;54.38;95852.00;4891028;29;20107;-78
2023/10/07 01:05:00;;;;;;;6.65;3.92;;;;;;;13.36;54.23;95846.91;4908094;29;20131;-77
2023/10/07 01:07:28;;;;;;;7.47;4.05;;;;;;;13.30;54.42;95845.84;4892025;29;20590;-78
2023/10/07 01:09:59;;;;;;;7.47;4.07;;;;;;;13.32;54.41;95846.22;4907773;29;20040;-77
2023/10/07 01:12:25;;;;;;;7.85;3.95;;;;;;;13.24;54.81;95842.06;4893197;29;20031;-77
2023/10/07 01:14:52;;;;;;;4.63;3.40;;;;;;;13.24;54.71;95842.06;4907935;29;20067;-76
2023/10/07 01:17:23;;;;;;;6.28;4.03;;;;;;;13.18;55.04;95841.00;4910967;29;20043;-78
2023/10/07 01:19:52;;;;;;;7.18;3.97;;;;;;;13.21;55.03;95849.22;4912968;29;20047;-78
2023/10/07 01:22:21;;;;;;;7.50;4.15;;;;;;;13.14;54.95;95841.09;4933798;29;20074;-79
2023/10/07 01:24:49;;;;;;;5.75;3.60;;;;;;;13.12;55.05;95846.25;4918137;29;20529;-78
2023/10/07 01:27:28;;;;;;;6.65;4.47;;;;;;;13.11;55.20;95852.22;4932948;29;20023;-78
2023/10/07 01:30:00;;;;;;;7.13;4.10;;;;;;;13.10;54.85;95850.66;4935058;29;20035;-78
2023/10/07 01:32:42;;;;;;;7.80;4.18;;;;;;;13.06;54.99;95847.97;4917012;29;20031;-79
2023/10/07 01:35:11;;;;;;;9.02;4.75;;;;;;;13.05;54.82;95845.66;4970616;28;20041;-78
2023/10/07 01:37:50;;;;;;;11.00;4.68;;;;;;;13.00;54.67;95847.72;5009635;28;20030;-78
2023/10/07 01:40:17;;;;;;;6.65;4.07;;;;;;;12.95;54.78;95845.47;5008030;28;20171;-78
2023/10/07 01:42:46;;;;;;;9.57;4.38;;;;;;;12.90;55.04;95851.53;4992259;28;20026;-78
2023/10/07 01:45:21;;;;;;;7.85;4.07;;;;;;;12.88;54.91;95851.16;5007874;28;20107;-78
2023/10/07 01:47:48;;;;;;;6.68;4.55;;;;;;;12.87;55.19;95848.84;5009998;28;20428;-77
2023/10/07 01:50:18;;;;;;;8.68;5.00;;;;;;;12.81;55.11;95839.53;5007429;28;20041;-78
2023/10/07 01:52:52;;;;;;;10.55;6.20;;;;;;;12.80;55.14;95836.00;5007951;28;20056;-78
2023/10/07 01:55:19;;;;;;;8.68;4.53;;;;;;;12.74;55.39;95841.25;4992084;28;20045;-78
2023/10/07 01:57:48;;;;;;;7.45;5.00;;;;;;;12.72;55.37;95840.09;5009048;28;20515;-78
2023/10/07 02:00:34;;;;;;;8.77;4.68;;;;;;;12.70;55.66;95834.25;5007813;28;20224;-78
2023/10/07 02:03:02;;;;;;;9.00;5.43;;;;;;;12.67;55.43;95837.84;5008936;28;20022;-78
2023/10/07 02:05:34;;;;;;;8.77;4.43;;;;;;;12.63;55.78;95837.19;5007739;28;20030;-78
2023/10/07 02:08:01;;;;;;;6.38;4.47;;;;;;;12.58;55.83;95829.41;5008886;28;20734;-78
2023/10/07 02:10:28;;;;;;;12.05;5.03;;;;;;;12.57;55.92;95825.09;5007121;28;20022;-78
2023/10/07 02:12:54;;;;;;;10.40;5.00;;;;;;;12.54;55.95;95825.94;5007468;28;20108;-78
2023/10/07 02:15:19;;;;;;;6.65;4.55;;;;;;;12.52;55.91;95818.09;5006645;28;20120;-78
2023/10/07 02:17:47;;;;;;;7.55;5.15;;;;;;;12.56;56.09;95823.53;5009024;28;20492;-78
2023/10/07 02:20:32;;;;;;;7.85;4.43;;;;;;;12.55;56.02;95824.72;4990949;28;20026;-78
2023/10/07 02:22:57;;;;;;;7.10;4.32;;;;;;;12.51;56.01;95821.28;5007857;28;20022;-78
2023/10/07 02:25:29;;;;;;;9.48;4.80;;;;;;;12.52;55.93;95820.84;4990569;28;20472;-78
2023/10/07 02:27:54;;;;;;;8.13;4.65;;;;;;;12.46;56.23;95825.31;4990572;28;20032;-77
2023/10/07 02:30:20;;;;;;;6.70;4.00;;;;;;;12.47;56.03;95824.91;5006955;28;20363;-76
2023/10/07 02:32:46;;;;;;;7.97;4.25;;;;;;;12.48;55.99;95829.19;5010412;28;20041;-78
2023/10/07 02:35:19;;;;;;;9.77;4.03;;;;;;;12.45;56.25;95823.78;5027176;28;20100;-78
2023/10/07 02:37:49;;;;;;;9.88;5.22;;;;;;;12.36;56.55;95826.34;5010933;28;20031;-77
2023/10/07 02:40:22;;;;;;;7.40;4.65;;;;;;;12.38;56.44;95823.91;5026971;28;20052;-77
2023/10/07 02:42:49;;;;;;;7.15;4.63;;;;;;;12.37;56.56;95825.91;5010645;28;20424;-77
2023/10/07 02:47:54;;;;;;;7.28;4.88;;;;;;;12.33;56.68;95824.41;5028141;28;20029;-78
2023/10/07 02:50:20;;;;;;;7.88;4.63;;;;;;;12.33;56.65;95827.16;5010298;28;20452;-78
2023/10/07 02:52:46;;;;;;;7.78;4.75;;;;;;;12.30;56.66;95823.31;5010077;28;20072;-78
2023/10/07 02:57:41;;;;;;;9.38;5.85;;;;;;;12.21;56.99;95821.13;5026284;28;20034;-79
2023/10/07 03:00:29;;;;;;;8.15;4.40;;;;;;;12.21;56.84;95836.88;5010175;28;20052;-78
2023/10/07 03:05:45;;;;;;;10.07;4.60;;;;;;;12.20;56.98;95832.56;5027211;28;20125;-78
2023/10/07 03:08:19;;;;;;;7.57;4.13;;;;;;;12.15;57.00;95831.09;5009943;28;20029;-78
2023/10/07 03:13:37;;;;;;;7.38;3.95;;;;;;;12.05;56.65;95823.84;4995953;28;20041;-78
2023/10/07 03:16:10;;;;;;;7.65;4.10;;;;;;;12.07;56.35;95831.66;5025917;28;20033;-78
2023/10/07 03:18:38;;;;;;;9.07;4.13;;;;;;;12.00;56.44;95826.31;5010521;28;20034;-78
2023/10/07 03:21:10;;;;;;;8.02;3.75;;;;;;;12.03;56.35;95844.72;5025751;28;20064;-78
2023/10/07 03:23:45;;;;;;;6.85;4.28;;;;;;;11.99;56.29;95846.81;5026101;28;20594;-78
2023/10/07 03:26:17;;;;;;;8.52;4.68;;;;;;;11.93;56.52;95844.53;5010637;28;20484;-78
2023/10/07 03:28:53;;;;;;;8.38;4.55;;;;;;;11.89;56.68;95837.53;5009574;28;20049;-78
2023/10/07 03:31:34;;;;;;;8.60;4.80;;;;;;;11.89;56.14;95832.81;5026650;28;20036;-78
2023/10/07 03:34:01;;;;;;;7.80;4.88;;;;;;;11.84;56.43;95830.53;5011154;28;20115;-78
2023/10/07 03:36:41;;;;;;;11.13;4.93;;;;;;;11.82;56.22;95826.66;5026239;28;20033;-78
2023/10/07 03:41:52;;;;;;;6.90;4.05;;;;;;;11.79;56.44;95844.75;5025635;28;20132;-77
2023/10/07 03:44:22;;;;;;;11.55;4.53;;;;;;;11.78;56.31;95845.97;5026059;28;20049;-78
2023/10/07 03:46:54;;;;;;;9.27;4.45;;;;;;;11.68;56.36;95835.94;5008773;28;20065;-79
2023/10/07 03:49:21;;;;;;;7.38;3.65;;;;;;;11.70;56.49;95836.31;5026002;28;20053;-78
2023/10/07 03:51:48;;;;;;;7.50;4.32;;;;;;;11.62;56.54;95830.13;5009130;28;20491;-78
2023/10/07 03:54:24;;;;;;;8.70;4.40;;;;;;;11.65;56.41;95834.81;5025688;28;20057;-78
2023/10/07 03:56:51;;;;;;;7.70;3.65;;;;;;;11.59;56.68;95844.75;5025311;28;20055;-77
2023/10/07 03:59:17;;;;;;;8.82;3.70;;;;;;;11.57;56.57;95840.84;5024954;28;20030;-77
2023/10/07 04:01:45;;;;;;;7.80;3.80;;;;;;;11.50;56.76;95847.28;5008775;28;20025;-77
2023/10/07 04:04:12;;;;;;;6.20;3.78;;;;;;;11.43;57.06;95845.44;5024930;28;20021;-77
2023/10/07 04:06:40;;;;;;;6.00;3.90;;;;;;;11.44;56.94;95849.72;5025787;28;20018;-77
2023/10/07 04:09:06;;;;;;;7.68;4.30;;;;;;;11.41;56.99;95852.53;5024900;28;20100;-78
2023/10/07 04:11:33;;;;;;;5.75;3.78;;;;;;;11.38;57.13;95862.44;5008735;28;20465;-77
2023/10/07 04:14:06;;;;;;;6.05;3.38;;;;;;;11.34;57.08;95855.41;5024807;28;20032;-78
2023/10/07 04:16:33;;;;;;;7.72;4.25;;;;;;;11.33;57.50;95862.13;5009593;28;20484;-78
2023/10/07 04:19:52;;;;;;;7.28;4.30;;;;;;;11.29;57.75;95853.13;5008868;28;20065;-78
2023/10/07 04:21:45;;;;;;;5.88;4.05;;;;;;;11.30;57.56;95852.75;5014117;28;20095;-78
2023/10/07 04:24:12;;;;;;;9.75;4.40;;;;;;;11.30;58.05;95857.47;5008959;28;20484;-77
2023/10/07 04:26:51;;;;;;;7.20;4.63;;;;;;;11.24;58.07;95861.88;5008718;28;20053;-78
2023/10/07 04:29:17;;;;;;;8.75;5.00;;;;;;;11.27;57.91;95853.56;5025598;28;20143;-77
2023/10/07 04:31:47;;;;;;;11.35;5.10;;;;;;;11.28;57.56;95851.59;5025354;28;20026;-78
2023/10/07 04:34:15;;;;;;;12.10;5.68;;;;;;;11.17;58.05;95847.03;5024776;28;20519;-78
2023/10/07 04:39:28;;;;;;;10.85;4.70;;;;;;;11.04;57.90;95832.31;5026815;28;20099;-79
2023/10/07 04:42:00;;;;;;;9.00;4.93;;;;;;;11.13;58.00;95843.59;5025003;28;20051;-77
2023/10/07 04:47:34;;;;;;;9.93;5.05;;;;;;;11.12;58.25;95844.75;5026460;28;20087;-77
2023/10/07 04:50:07;;;;;;;10.27;4.75;;;;;;;11.10;58.27;95849.13;5025572;28;20040;-77
2023/10/07 04:52:40;;;;;;;10.05;4.72;;;;;;;11.08;58.43;95846.03;5028188;28;20081;-78
2023/10/07 04:55:11;;;;;;;10.35;4.90;;;;;;;11.07;58.63;95850.00;5028941;28;20030;-77
2023/10/07 05:03:11;;;;;;;10.90;5.22;;;;;;;11.09;58.80;95855.84;5029243;28;20309;-78
2023/10/07 05:05:36;;;;;;;8.75;5.30;;;;;;;11.09;58.62;95853.09;5012998;28;20108;-78
2023/10/07 05:11:05;;;;;;;7.28;5.10;;;;;;;11.15;58.91;95867.94;4975217;28;20414;-78
2023/10/07 05:13:33;;;;;;;10.57;6.45;;;;;;;11.17;58.88;95873.78;4971369;28;20071;-77
2023/10/07 05:15:58;;;;;;;9.35;5.75;;;;;;;11.17;58.62;95871.81;4988097;28;20045;-79
2023/10/07 05:18:24;;;;;;;9.77;6.38;;;;;;;11.22;58.34;95878.03;4971203;28;20030;-77
2023/10/07 05:20:51;;;;;;;18.15;8.20;;;;;;;11.15;58.30;95870.69;4971568;28;20044;-77
2023/10/07 05:23:17;;;;;;;16.38;7.60;;;;;;;11.24;58.01;95883.91;4987654;28;20130;-77
2023/10/07 05:25:48;;;;;;;13.65;7.28;;;;;;;11.29;57.59;95884.19;4955117;28;20026;-77
2023/10/07 05:28:17;;;;;;;13.43;6.97;;;;;;;11.23;57.52;95879.59;4971699;28;20042;-78
2023/10/07 05:30:54;;;;;;;10.88;5.68;;;;;;;11.30;57.52;95880.28;4987194;28;20077;-78
2023/10/07 05:33:26;;;;;;;9.60;6.13;;;;;;;11.26;57.73;95884.28;4971269;28;20109;-78
2023/10/07 05:35:58;;;;;;;14.48;6.97;;;;;;;11.16;57.96;95881.25;4987496;28;20517;-78
2023/10/07 05:38:25;;;;;;;11.73;6.70;;;;;;;11.26;57.86;95885.03;4987399;28;20109;-78
2023/10/07 05:40:50;;;;;;;11.40;6.10;;;;;;;11.28;57.89;95890.91;4955162;28;20596;-78
2023/10/07 05:43:16;;;;;;;10.93;6.10;;;;;;;11.30;57.76;95896.00;4987154;28;20113;-78
2023/10/07 05:45:42;;;;;;;10.38;6.40;;;;;;;11.34;57.83;95903.00;4987643;28;20540;-78
2023/10/07 05:48:08;;;;;;;11.80;6.43;;;;;;;11.33;57.71;95900.66;4999231;28;20060;-78
2023/10/07 05:50:34;;;;;;;8.80;6.38;;;;;;;11.37;57.96;95907.66;5028179;28;20167;-78
2023/10/07 05:53:03;;;;;;;9.50;6.22;;;;;;;11.34;58.14;95904.97;5011040;28;20183;-77
2023/10/07 05:55:29;;;;;;;9.55;6.32;;;;;;;11.35;58.15;95901.78;5011572;28;20025;-78
2023/10/07 05:57:55;;;;;;;11.18;6.50;;;;;;;11.41;57.95;95905.66;5027608;28;20392;-78
2023/10/07 06:00:21;;;;;;;10.85;6.50;;;;;;;11.41;57.93;95902.91;5010369;28;20516;-77
2023/10/07 06:02:46;;;;;;;12.68;6.38;;;;;;;11.46;57.90;95909.88;5027276;28;20037;-76
2023/10/07 06:05:12;;;;;;;13.30;6.88;;;;;;;11.52;57.93;95913.69;5026886;28;20025;-77
2023/10/07 06:07:38;;;;;;;15.18;7.28;;;;;;;11.54;57.88;95905.81;5011443;28;20460;-77
2023/10/07 06:10:06;;;;;;;10.75;6.53;;;;;;;11.56;57.83;95905.41;5026862;28;20033;-77
2023/10/07 06:12:33;;;;;;;8.95;6.20;;;;;;;11.66;57.67;95898.94;5027636;28;20036;-77
2023/10/07 06:14:59;;;;;;;13.55;6.82;;;;;;;11.70;57.43;95894.16;5027287;28;20030;-79
2023/10/07 06:17:26;;;;;;;13.60;7.20;;;;;;;11.75;57.35;95895.59;5026886;28;20037;-79
2023/10/07 06:19:51;;;;;;;8.52;6.65;;;;;;;11.79;57.24;95893.56;5027261;28;20033;-79
2023/10/07 06:22:17;;;;;;;14.93;7.80;;;;;;;11.91;57.32;95904.00;5028143;28;20021;-78
2023/10/07 06:24:43;;;;;;;9.75;6.50;;;;;;;11.96;57.12;95895.25;5028763;28;20026;-79
2023/10/07 06:27:12;;;;;;;17.55;7.90;;;;;;;12.00;57.02;95895.97;5026572;28;20032;-79
2023/10/07 06:29:43;;;;;;;11.88;7.40;;;;;;;12.10;56.97;95910.72;5027405;28;20022;-79
2023/10/07 06:32:22;;;;;;;11.85;6.95;;;;;;;12.16;56.89;95903.56;5026797;28;20026;-78
2023/10/07 06:34:51;;;;;;;10.68;7.60;;;;;;;12.24;56.60;95891.16;5011909;28;20080;-79
2023/10/07 06:37:17;;;;;;;16.67;8.30;;;;;;;12.28;56.35;95899.38;5026629;28;20065;-78
2023/10/07 06:39:43;;;;;;;13.20;7.97;;;;;;;12.42;56.32;95905.38;5026553;28;20033;-79
2023/10/07 06:42:10;;;;;;;17.17;9.05;;;;;;;12.52;56.11;95908.34;5027030;28;20018;-79
2023/10/07 06:44:35;;;;;;;16.70;7.90;;;;;;;12.61;56.06;95906.53;5027465;28;20029;-78
2023/10/07 06:47:02;;;;;;;13.98;8.70;;;;;;;12.66;55.85;95899.75;5027068;28;20545;-78
2023/10/07 06:49:28;;;;;;;16.17;8.57;;;;;;;12.80;55.70;95904.19;5027697;28;20026;-78
2023/10/07 06:51:54;;;;;;;14.25;8.50;;;;;;;12.82;55.34;95901.78;5026477;28;20479;-78
2023/10/07 06:54:23;;;;;;;11.07;7.80;;;;;;;12.93;55.33;95916.13;5009921;28;20018;-78
2023/10/07 06:56:54;;;;;;;15.48;8.38;;;;;;;13.03;55.27;95907.59;5028114;28;20510;-79
2023/10/07 06:59:27;;;;;;;15.57;8.60;;;;;;;13.11;55.19;95910.97;5026361;28;20050;-79
2023/10/07 07:01:54;;;;;;;16.50;9.25;;;;;;;13.23;55.11;95909.53;5026364;28;20029;-79
2023/10/07 07:04:19;;;;;;;15.45;8.40;;;;;;;13.36;54.75;95907.66;5010217;28;20132;-79
2023/10/07 07:06:57;;;;;;;13.93;8.60;;;;;;;13.47;54.45;95910.91;5026283;28;20117;-79
2023/10/07 07:12:09;;;;;;;13.38;8.93;;;;;;;13.68;53.84;95901.31;5026517;28;20542;-77
2023/10/07 07:14:35;;;;;;;18.98;12.05;;;;;;;13.76;53.57;95902.72;5024966;28;20145;-77
2023/10/07 07:22:34;;;;;;;13.48;8.73;;;;;;;14.14;53.05;95893.03;5026089;28;20140;-77
2023/10/07 07:25:10;;;;;;;15.32;9.00;;;;;;;14.18;52.49;95879.88;5009481;28;20476;-78
2023/10/07 07:27:37;;;;;;;14.27;8.68;;;;;;;14.38;52.25;95897.06;5025451;28;20033;-79
2023/10/07 07:30:07;;;;;;;16.35;8.85;;;;;;;14.40;52.43;95878.06;5026056;28;20083;-78
2023/10/07 07:32:33;;;;;;;17.30;9.27;;;;;;;14.60;51.55;95892.50;5027070;28;20037;-77
2023/10/07 07:35:05;;;;;;;9.23;7.50;;;;;;;14.77;51.49;95897.97;5029167;28;20067;-77
2023/10/07 07:37:34;;;;;;;11.50;7.53;;;;;;;14.87;51.43;95896.88;5028637;28;20017;-80
2023/10/07 07:40:09;;;;;;;15.27;7.80;;;;;;;14.99;50.94;95893.31;5012812;28;20064;-77
2023/10/07 07:42:35;;;;;;;12.10;8.88;;;;;;;15.15;50.24;95895.22;5013489;28;20025;-78
2023/10/07 07:45:01;;;;;;;11.80;7.70;;;;;;;15.20;50.09;95888.34;5012209;28;20021;-79
2023/10/07 07:47:31;;;;;;;13.85;8.15;;;;;;;15.37;49.98;95890.56;5012616;28;20029;-79
2023/10/07 07:50:07;;;;;;;12.55;8.43;;;;;;;15.50;49.66;95887.75;5012586;28;20033;-79
2023/10/07 07:52:32;;;;;;;13.40;7.35;;;;;;;15.67;49.21;95880.09;5046590;28;20039;-78
2023/10/07 07:54:58;;;;;;;12.88;7.03;;;;;;;15.88;48.80;95878.56;5028691;28;20025;-78
2023/10/07 07:57:24;;;;;;;15.48;8.27;;;;;;;16.06;48.49;95875.22;5012629;28;20021;-78
2023/10/07 07:59:50;;;;;;;13.82;7.82;;;;;;;16.24;47.86;95880.13;5028622;28;20079;-79
2023/10/07 08:02:16;;;;;;;16.48;7.25;;;;;;;16.45;48.00;95876.53;5028414;28;20025;-79
2023/10/07 08:04:46;;;;;;;11.68;6.75;;;;;;;16.66;47.21;95872.22;5012549;28;20178;-78
2023/10/07 08:07:27;;;;;;;11.27;6.78;;;;;;;16.96;47.28;95879.03;5029663;28;20021;-79
2023/10/07 08:09:53;;;;;;;12.60;7.93;;;;;;;17.39;45.60;95880.13;5030414;28;20495;-79
2023/10/07 08:12:28;;;;;;;9.55;6.70;;;;;;;17.74;45.39;95880.69;5012188;28;20029;-79
2023/10/07 08:14:58;;;;;;;11.93;7.22;;;;;;;18.19;44.35;95893.09;5012844;28;20529;-78
2023/10/07 08:17:30;;;;;;;10.13;7.20;;;;;;;18.56;43.45;95875.09;5012815;28;20446;-79
2023/10/07 08:19:57;;;;;;;12.45;7.03;;;;;;;19.04;42.34;95882.91;5011872;28;20475;-79
2023/10/07 08:22:23;;;;;;;9.45;6.00;;;;;;;19.42;41.55;95871.13;5046636;28;20068;-78
2023/10/07 08:24:49;;;;;;;8.90;5.82;;;;;;;19.84;40.65;95873.84;5045936;28;20036;-79
2023/10/07 08:30:06;;;;;;;8.80;6.05;;;;;;;20.64;38.81;95872.13;5035378;28;20086;-79
2023/10/07 08:32:37;;;;;;;12.90;6.95;;;;;;;20.96;38.34;95866.81;5016413;28;20099;-78
2023/10/07 08:35:16;;;;;;;9.65;5.75;;;;;;;21.35;37.51;95859.06;5033594;28;20036;-79
2023/10/07 08:37:45;;;;;;;8.48;5.72;;;;;;;21.82;37.08;95859.97;5016737;28;20121;-79
2023/10/07 08:40:26;;;;;;;9.50;5.95;;;;;;;22.23;35.93;95846.75;5031906;28;20104;-79
2023/10/07 08:43:04;;;;;;;8.38;5.60;;;;;;;22.59;35.27;95850.16;5016313;28;20029;-79
2023/10/07 08:45:30;;;;;;;9.93;5.80;;;;;;;23.02;34.58;95845.50;5032795;28;20055;-79
2023/10/07 08:48:15;;;;;;;9.63;5.97;;;;;;;23.55;33.83;95846.13;5032360;28;20040;-79
2023/10/07 08:50:55;;;;;;;11.18;5.93;;;;;;;24.05;32.71;95852.03;5034530;28;20040;-79
2023/10/07 08:53:25;;;;;;;8.38;5.15;;;;;;;24.55;32.16;95840.19;5034441;28;20016;-79
2023/10/07 08:55:54;;;;;;;10.57;5.28;;;;;;;25.00;30.97;95839.47;5015736;28;20025;-79
2023/10/07 08:58:24;;;;;;;12.48;5.60;;;;;;;25.49;30.25;95831.53;5032118;28;20059;-79
2023/10/07 09:00:50;;;;;;;10.40;5.10;;;;;;;26.11;29.29;95830.09;5016182;28;20029;-79
2023/10/07 09:03:19;;;;;;;8.73;4.65;;;;;;;26.92;28.29;95836.28;5032055;28;20483;-79
2023/10/07 09:05:47;;;;;;;10.07;5.55;;;;;;;27.46;26.94;95832.78;5032062;28;20029;-79
2023/10/07 09:08:12;;;;;;;8.85;5.00;;;;;;;28.24;26.12;95830.41;5032195;28;20515;-78
2023/10/07 09:10:45;;;;;;;10.00;5.10;;;;;;;28.89;25.04;95829.25;5015315;28;20040;-78
2023/10/07 09:13:26;;;;;;;;;;;;;;;29.66;23.57;95830.59;5050335;28;20018;-79
2023/10/07 09:15:53;;;;;;;12.73;5.03;;;;;;;30.57;23.10;95828.25;5049312;28;19916;-78
2023/10/07 09:18:22;;;;;;;8.85;5.60;;;;;;;31.41;21.54;95827.06;5032327;28;20033;-80
2023/10/07 09:20:50;;;;;;;7.85;4.90;;;;;;;31.95;20.97;95822.56;5031269;28;20495;-79
2023/10/07 09:23:19;;;;;;;8.55;4.80;;;;;;;32.70;20.22;95829.19;5032119;28;20033;-79
2023/10/07 09:25:52;;;;;;;8.40;5.20;;;;;;;33.28;19.55;95824.00;5032006;28;20032;-79
2023/10/07 09:28:30;;;;;;;;;;;;;;;33.94;18.55;95822.31;5016166;28;20036;-79
2023/10/07 09:31:05;;;;;;;8.50;4.43;;;;;;;34.76;17.96;95833.31;5032715;28;19924;-80
2023/10/07 09:33:35;;;;;;;7.55;4.10;;;;;;;35.54;17.58;95812.25;5032124;28;20420;-82
2023/10/07 09:38:48;;;;;;;11.13;3.83;;;;;;;36.67;15.85;95817.41;5033615;28;20075;-79
2023/10/07 09:43:51;;;;;;;6.40;3.70;;;;;;;36.23;16.20;95815.22;5049590;28;20025;-79
2023/10/07 09:46:24;;;;;;;8.35;4.90;;;;;;;36.33;15.75;95806.72;5031236;28;20028;-79
2023/10/07 09:48:56;;;;;;;9.85;5.72;;;;;;;36.83;15.53;95812.22;5015790;28;20502;-81
2023/10/07 09:51:28;;;;;;;5.80;4.00;;;;;;;36.82;15.57;95808.63;5014329;28;20029;-81
2023/10/07 09:54:26;;;;;;;6.55;3.50;;;;;;;37.37;15.04;95803.66;5014757;28;20044;-80
2023/10/07 09:57:07;;;;;;;8.35;3.38;;;;;;;38.16;14.96;95797.50;5048784;28;20403;-80
2023/10/07 09:59:35;;;;;;;6.82;3.67;;;;;;;38.97;14.38;95797.78;5048172;28;20116;-81
2023/10/07 10:02:25;;;;;;;5.68;3.75;;;;;;;39.64;13.32;95786.66;5048612;28;20021;-80
2023/10/07 10:05:36;;;;;;;8.15;4.50;;;;;;;40.02;12.95;95788.53;5048631;28;20025;-79
2023/10/07 10:08:11;;;;;;;6.10;3.28;;;;;;;39.96;12.93;95770.84;4986203;28;20080;-80
2023/10/07 10:10:44;;;;;;;5.65;3.05;;;;;;;40.41;12.73;95774.59;4987078;28;20356;-79
2023/10/07 10:13:29;;;;;;;5.80;3.08;;;;;;;41.09;12.43;95773.97;4971065;28;20072;-80
2023/10/07 10:16:00;;;;;;;5.20;3.53;;;;;;;41.28;12.29;95762.19;4971193;28;20121;-80
2023/10/07 10:18:38;;;;;;;5.50;3.10;;;;;;;41.55;11.70;95758.09;4954581;28;20034;-80
2023/10/07 10:21:05;;;;;;;7.90;3.40;;;;;;;42.05;11.32;95748.09;4971400;28;20444;-80
2023/10/07 10:23:34;;;;;;;7.90;3.83;;;;;;;42.52;11.48;95745.06;4970670;28;20034;-80
2023/10/07 10:26:21;;;;;;;9.85;4.10;;;;;;;42.61;11.11;95738.38;4986139;28;20154;-80
2023/10/07 10:29:07;;;;;;;5.70;2.92;;;;;;;42.63;11.04;95727.69;4972692;28;20038;-79
2023/10/07 10:31:34;;;;;;;5.57;3.60;;;;;;;43.03;10.80;95733.50;4986359;28;20046;-80
2023/10/07 10:34:04;;;;;;;7.05;2.85;;;;;;;43.47;10.67;95724.38;4969614;28;20158;-80
2023/10/07 10:36:31;;;;;;;5.80;3.38;;;;;;;43.34;10.09;95722.16;4986625;28;20177;-80
2023/10/07 10:39:00;;;;;;;7.97;2.95;;;;;;;43.76;10.26;95716.38;4970052;28;20549;-80
2023/10/07 10:41:29;;;;;;;7.25;3.20;;;;;;;44.13;10.13;95707.44;4970579;28;20034;-79
2023/10/07 10:44:10;;;;;;;7.68;3.05;;;;;;;44.58;10.17;95698.09;4977923;28;20030;-80
2023/10/07 10:46:44;;;;;;;6.25;3.10;;;;;;;45.08;9.28;95696.09;5030762;28;20029;-80
2023/10/07 10:49:11;;;;;;;7.97;4.07;;;;;;;45.18;9.36;95682.81;5029952;28;20116;-81
2023/10/07 10:51:45;;;;;;;6.75;5.03;;;;;;;44.54;9.53;95678.34;5047778;28;20230;-80
2023/10/07 10:54:14;;;;;;;5.55;3.78;;;;;;;44.11;9.90;95679.16;5047775;28;20104;-80
2023/10/07 10:57:00;;;;;;;6.25;3.55;;;;;;;43.84;10.21;95679.97;5029497;28;20060;-80
2023/10/07 10:59:42;;;;;;;6.97;3.40;;;;;;;44.15;10.14;95664.84;5013110;28;20036;-80
2023/10/07 11:02:20;;;;;;;5.13;3.20;;;;;;;44.32;10.17;95662.78;5030369;28;20060;-80
2023/10/07 11:04:47;;;;;;;5.63;3.55;;;;;;;44.75;9.59;95651.84;5029604;28;20037;-80
2023/10/07 11:07:14;;;;;;;7.78;2.95;;;;;;;44.47;9.41;95645.41;5029383;28;20073;-79
2023/10/07 11:09:41;;;;;;;5.55;2.90;;;;;;;44.66;9.67;95638.34;5029480;28;20051;-80
2023/10/07 11:12:09;;;;;;;4.05;2.78;;;;;;;45.06;9.48;95640.91;5029482;28;20028;-80
2023/10/07 11:14:40;;;;;;;6.53;3.05;;;;;;;45.55;9.14;95638.78;5013126;28;20100;-81
2023/10/07 11:17:08;;;;;;;5.70;2.70;;;;;;;45.90;8.78;95633.72;5047081;28;20064;-81
2023/10/07 11:19:40;;;;;;;7.22;2.63;;;;;;;46.30;8.75;95620.88;5013744;28;20476;-81
2023/10/07 11:22:07;;;;;;;6.75;3.42;;;;;;;46.38;8.46;95626.28;5012934;28;20048;-81
2023/10/07 11:24:35;;;;;;;8.30;3.40;;;;;;;46.48;8.30;95620.88;5012716;28;20472;-81
2023/10/07 11:27:02;;;;;;;6.93;3.63;;;;;;;45.41;8.90;95609.16;5029496;28;20021;-80
2023/10/07 11:29:30;;;;;;;7.50;3.30;;;;;;;43.68;9.91;95598.06;5029266;28;20029;-81
2023/10/07 11:32:00;;;;;;;6.10;3.45;;;;;;;41.38;10.92;95598.44;5012870;28;20056;-80
2023/10/07 11:34:45;;;;;;;8.43;3.60;;;;;;;40.25;12.15;95603.63;5028485;28;20071;-80
2023/10/07 11:37:18;;;;;;;7.60;4.35;;;;;;;39.17;12.88;95585.78;5029796;28;20104;-80
2023/10/07 11:39:45;;;;;;;8.02;4.07;;;;;;;38.11;13.95;95589.78;5029385;28;20412;-80
2023/10/07 11:42:18;;;;;;;8.27;4.95;;;;;;;37.33;14.28;95579.69;5028811;28;20099;-80
2023/10/07 11:44:49;;;;;;;8.32;3.88;;;;;;;36.48;15.01;95568.94;5029042;28;20108;-80
2023/10/07 11:47:16;;;;;;;5.28;2.83;;;;;;;35.71;15.17;95577.81;5028696;28;20036;-80
2023/10/07 11:49:42;;;;;;;6.03;3.83;;;;;;;34.93;15.70;95567.81;5029364;28;20029;-79
2023/10/07 11:52:08;;;;;;;8.07;5.03;;;;;;;34.34;16.17;95565.59;5011700;28;20028;-80
2023/10/07 11:54:43;;;;;;;6.95;3.45;;;;;;;33.61;16.61;95557.09;5012215;28;20032;-79
2023/10/07 11:57:09;;;;;;;7.10;4.00;;;;;;;33.05;17.28;95552.69;5030269;28;20029;-79
2023/10/07 11:59:41;;;;;;;7.65;3.30;;;;;;;32.68;18.45;95557.84;5027803;28;20090;-79
2023/10/07 12:02:10;;;;;;;8.38;3.92;;;;;;;32.35;17.78;95545.53;5046800;28;20044;-79
2023/10/07 12:04:48;;;;;;;8.18;3.28;;;;;;;31.85;17.51;95534.44;5011447;28;20098;-79
2023/10/07 12:07:14;;;;;;;6.45;3.00;;;;;;;31.42;17.71;95547.34;5028933;28;20037;-79
2023/10/07 12:09:50;;;;;;;7.57;3.35;;;;;;;31.01;18.01;95544.69;5027914;28;20028;-79
2023/10/07 12:12:17;;;;;;;4.88;2.90;;;;;;;30.56;18.19;95548.72;5012304;28;20024;-79
2023/10/07 12:14:43;;;;;;;8.60;2.65;;;;;;;30.05;17.75;95530.13;5028106;28;20025;-78
2023/10/07 12:17:08;;;;;;;4.43;3.08;;;;;;;29.59;17.88;95529.69;5012148;28;20025;-79
2023/10/07 12:19:36;;;;;;;5.68;2.83;;;;;;;29.44;18.40;95520.22;5011725;28;20036;-80
2023/10/07 12:22:05;;;;;;;5.97;3.03;;;;;;;29.25;19.12;95526.81;5028424;28;20384;-80
2023/10/07 12:24:31;;;;;;;6.03;2.80;;;;;;;28.89;19.72;95531.38;5029203;28;20049;-79
2023/10/07 12:26:56;;;;;;;6.60;3.10;;;;;;;28.57;20.42;95523.78;5028553;28;20096;-79
2023/10/07 12:29:23;;;;;;;7.53;3.15;;;;;;;28.27;20.63;95522.00;5028812;28;20018;-79
2023/10/07 12:31:49;;;;;;;7.53;3.08;;;;;;;28.03;20.83;95520.06;5028395;28;20127;-79
2023/10/07 12:34:16;;;;;;;5.88;3.15;;;;;;;27.92;21.58;95517.44;5028204;28;20535;-79
2023/10/07 12:36:45;;;;;;;6.35;3.30;;;;;;;27.84;20.58;95515.78;5011676;28;20162;-79
2023/10/07 12:39:11;;;;;;;4.95;3.05;;;;;;;27.66;20.52;95506.03;5011829;28;20029;-79
2023/10/07 12:41:39;;;;;;;5.32;2.60;;;;;;;27.52;20.85;95510.84;5028485;28;20363;-79
2023/10/07 12:44:08;;;;;;;5.55;3.38;;;;;;;27.51;20.59;95507.25;5011781;28;20032;-79